Time;durP1;ratioP1;P1;durP2;ratioP2;P2;SDS_P1;SDS_P2;PMS_P1;PMS_P2;Temp;Humidity;BMP_temperature;BMP_pressure;BME280_temperature;BME280_humidity;BME280_pressure;Samples;Min_cycle;Max_cycle;Signal;HPM_P1;HPM_P2
2022/11/20 00:01:19;;;;;;;61.88;27.98;;;-1.00;99.90;;;;;;5048280;28;20060;-69
2022/11/20 00:03:46;;;;;;;44.30;23.45;;;-0.90;99.90;;;;;;5051903;28;20048;-70
2022/11/20 00:06:13;;;;;;;29.98;17.65;;;-0.90;99.90;;;;;;5048908;28;20053;-70
2022/11/20 00:08:40;;;;;;;22.27;13.85;;;-0.80;99.90;;;;;;5087587;28;20561;-69
2022/11/20 00:11:07;;;;;;;21.98;13.07;;;-0.80;99.90;;;;;;5083347;28;20044;-69
2022/11/20 00:13:33;;;;;;;22.35;14.05;;;-0.80;99.90;;;;;;5086079;28;20100;-69
2022/11/20 00:16:01;;;;;;;21.00;13.95;;;-0.80;99.90;;;;;;5053676;28;20066;-69
2022/11/20 00:18:27;;;;;;;22.92;13.98;;;-0.80;99.90;;;;;;5083563;28;20052;-69
2022/11/20 00:20:53;;;;;;;28.77;16.00;;;-0.80;99.90;;;;;;5085988;28;20068;-69
2022/11/20 00:23:19;;;;;;;34.97;18.52;;;-0.70;99.90;;;;;;5055243;28;20044;-69
2022/11/20 00:25:45;;;;;;;32.08;18.23;;;-0.70;99.90;;;;;;5052690;28;20104;-69
2022/11/20 00:28:11;;;;;;;24.58;15.02;;;-0.80;99.90;;;;;;5054738;28;20095;-70
2022/11/20 00:30:37;;;;;;;25.90;16.02;;;-0.70;99.90;;;;;;5053576;28;20049;-69
2022/11/20 00:33:03;;;;;;;29.42;16.80;;;-0.70;99.90;;;;;;5052671;28;20056;-69
2022/11/20 00:35:28;;;;;;;26.02;15.80;;;-0.70;99.90;;;;;;5082247;28;20037;-69
2022/11/20 00:37:54;;;;;;;28.92;17.10;;;-0.70;99.90;;;;;;5053419;28;20084;-69
2022/11/20 00:40:19;;;;;;;26.15;15.57;;;-0.70;99.90;;;;;;5072834;28;20076;-69
2022/11/20 00:42:45;;;;;;;25.27;15.63;;;-0.60;99.90;;;;;;5070428;28;20056;-69
2022/11/20 00:45:11;;;;;;;27.85;16.45;;;-0.60;99.90;;;;;;5050193;28;20048;-70
2022/11/20 00:47:36;;;;;;;26.75;16.48;;;-0.70;99.90;;;;;;5070538;28;20057;-69
2022/11/20 00:50:03;;;;;;;23.38;14.85;;;-0.60;99.90;;;;;;5056874;28;20286;-69
2022/11/20 00:52:28;;;;;;;25.65;15.98;;;-0.60;99.90;;;;;;5059644;28;20075;-69
2022/11/20 00:54:54;;;;;;;24.88;15.27;;;-0.60;99.90;;;;;;5062704;28;20049;-69
2022/11/20 00:57:20;;;;;;;28.35;17.38;;;-0.50;99.90;;;;;;5033204;28;20041;-69
2022/11/20 00:59:45;;;;;;;28.35;17.00;;;-0.60;99.90;;;;;;5049218;28;20049;-70
2022/11/20 01:02:11;;;;;;;27.48;15.65;;;-0.60;99.90;;;;;;5049515;28;20051;-70
2022/11/20 01:04:37;;;;;;;26.75;15.23;;;-0.60;99.90;;;;;;5038714;28;20053;-69
2022/11/20 01:07:02;;;;;;;24.05;15.10;;;-0.60;99.90;;;;;;5069108;28;20052;-69
2022/11/20 01:09:28;;;;;;;25.42;16.35;;;-0.50;99.90;;;;;;5055444;28;20041;-69
2022/11/20 01:11:54;;;;;;;23.13;15.38;;;-0.50;99.90;;;;;;5066663;28;20044;-70
2022/11/20 01:14:20;;;;;;;21.83;14.75;;;-0.50;99.90;;;;;;5029941;28;20049;-69
2022/11/20 01:16:49;;;;;;;25.08;15.60;;;-0.50;99.90;;;;;;5078817;28;20048;-69
2022/11/20 01:19:17;;;;;;;20.85;14.75;;;-0.40;99.90;;;;;;5074953;28;20431;-69
2022/11/20 01:21:45;;;;;;;21.30;14.32;;;-0.40;99.90;;;;;;5039802;28;20055;-70
2022/11/20 01:24:13;;;;;;;29.33;15.00;;;-0.50;99.90;;;;;;5048835;28;20047;-69
2022/11/20 01:26:41;;;;;;;21.42;14.77;;;-0.40;99.90;;;;;;5034111;28;20049;-69
2022/11/20 01:29:13;;;;;;;23.83;14.13;;;-0.40;99.90;;;;;;5047726;28;20049;-70
2022/11/20 01:31:39;;;;;;;23.83;15.55;;;-0.30;99.90;;;;;;5048479;28;20414;-69
2022/11/20 01:34:08;;;;;;;22.63;14.95;;;-0.30;99.90;;;;;;5049816;28;20044;-69
2022/11/20 01:36:36;;;;;;;24.83;14.90;;;-0.30;99.90;;;;;;5042122;28;20045;-69
2022/11/20 01:39:05;;;;;;;23.30;14.93;;;-0.40;99.90;;;;;;5066679;28;20086;-70
2022/11/20 01:44:19;;;;;;;20.67;13.90;;;-0.40;99.90;;;;;;5030281;28;20563;-69
2022/11/20 01:47:02;;;;;;;19.60;13.10;;;-0.40;99.90;;;;;;5054504;28;20417;-69
2022/11/20 01:49:36;;;;;;;23.38;13.85;;;-0.40;99.90;;;;;;5052206;28;20058;-69
2022/11/20 01:52:06;;;;;;;23.02;14.27;;;-0.40;99.90;;;;;;5040979;28;20052;-69
2022/11/20 01:54:38;;;;;;;22.50;13.65;;;-0.50;99.90;;;;;;5047557;28;20045;-70
2022/11/20 01:57:06;;;;;;;21.45;14.00;;;-0.40;99.90;;;;;;5080837;28;20064;-69
2022/11/20 01:59:32;;;;;;;21.13;13.82;;;-0.50;99.90;;;;;;5057562;28;20048;-70
2022/11/20 02:01:58;;;;;;;20.75;14.18;;;-0.40;99.90;;;;;;5038808;28;20053;-69
2022/11/20 02:04:25;;;;;;;20.13;13.90;;;-0.50;99.90;;;;;;5062510;28;20059;-69
2022/11/20 02:06:59;;;;;;;25.75;15.50;;;-0.40;99.90;;;;;;5082592;28;20052;-70
2022/11/20 02:09:26;;;;;;;21.65;13.90;;;-0.40;99.90;;;;;;5050591;28;20096;-69
2022/11/20 02:11:52;;;;;;;21.33;13.55;;;-0.40;99.90;;;;;;5067101;28;20052;-69
2022/11/20 02:14:19;;;;;;;21.67;13.88;;;-0.40;99.90;;;;;;5060542;28;20071;-69
2022/11/20 02:16:47;;;;;;;22.45;14.35;;;-0.40;99.90;;;;;;5047653;28;20050;-70
2022/11/20 02:19:33;;;;;;;21.80;14.32;;;-0.40;99.90;;;;;;5036772;28;20049;-70
2022/11/20 02:22:12;;;;;;;23.42;15.35;;;-0.40;99.90;;;;;;5066264;28;20072;-69
2022/11/20 02:24:38;;;;;;;21.95;14.80;;;-0.30;99.90;;;;;;5044337;28;20082;-69
2022/11/20 02:27:08;;;;;;;24.83;14.52;;;-0.30;99.90;;;;;;5083182;28;20096;-70
2022/11/20 02:29:42;;;;;;;21.08;14.43;;;-0.20;99.90;;;;;;5036073;28;20040;-69
2022/11/20 02:32:22;;;;;;;20.00;13.23;;;-0.20;99.90;;;;;;5047774;28;20045;-70
2022/11/20 02:34:48;;;;;;;22.67;13.48;;;-0.20;99.90;;;;;;5056931;28;20048;-70
2022/11/20 02:37:14;;;;;;;21.67;14.45;;;-0.20;99.90;;;;;;5060741;28;20049;-70
2022/11/20 02:39:41;;;;;;;23.73;14.30;;;-0.30;99.90;;;;;;5046730;28;20089;-69
2022/11/20 02:42:07;;;;;;;20.95;14.60;;;-0.30;99.90;;;;;;5029473;28;20397;-70
2022/11/20 02:44:32;;;;;;;22.92;15.07;;;-0.20;99.90;;;;;;5055342;28;20049;-70
2022/11/20 02:46:59;;;;;;;21.80;14.45;;;-0.20;99.90;;;;;;5032735;28;20714;-69
2022/11/20 02:49:25;;;;;;;21.73;15.05;;;-0.30;99.90;;;;;;5068694;28;20076;-69
2022/11/20 02:51:51;;;;;;;23.27;14.75;;;-0.20;99.90;;;;;;5080062;28;20056;-69
2022/11/20 02:54:17;;;;;;;23.33;14.85;;;-0.30;99.90;;;;;;5049246;28;20048;-69
2022/11/20 02:56:43;;;;;;;20.20;13.85;;;-0.30;99.90;;;;;;5051752;28;20043;-69
2022/11/20 02:59:09;;;;;;;24.02;15.10;;;-0.30;99.90;;;;;;5067441;28;20040;-69
2022/11/20 03:01:35;;;;;;;21.85;14.73;;;-0.20;99.90;;;;;;5092796;28;20044;-69
2022/11/20 03:04:02;;;;;;;23.60;15.38;;;-0.20;99.90;;;;;;5060353;28;20090;-69
2022/11/20 03:06:27;;;;;;;22.10;14.73;;;-0.20;99.90;;;;;;5070701;28;20052;-70
2022/11/20 03:08:53;;;;;;;22.30;15.48;;;-0.30;99.90;;;;;;5063663;28;20049;-69
2022/11/20 03:11:19;;;;;;;21.58;14.75;;;-0.30;99.90;;;;;;5060582;28;20049;-69
2022/11/20 03:13:45;;;;;;;22.33;15.15;;;-0.20;99.90;;;;;;5045865;28;20480;-69
2022/11/20 03:16:17;;;;;;;23.10;15.05;;;-0.20;99.90;;;;;;5043169;28;20087;-69
2022/11/20 03:18:43;;;;;;;23.73;15.60;;;-0.20;99.90;;;;;;5092090;28;20056;-69
2022/11/20 03:21:10;;;;;;;23.02;15.00;;;-0.20;99.90;;;;;;5057610;28;20056;-69
2022/11/20 03:23:38;;;;;;;23.20;14.85;;;-0.20;99.90;;;;;;5027111;28;20057;-70
2022/11/20 03:26:15;;;;;;;23.73;15.25;;;-0.20;99.90;;;;;;5040171;28;20056;-70
2022/11/20 03:28:45;;;;;;;22.27;14.73;;;-0.20;99.90;;;;;;5028147;28;20044;-69
2022/11/20 03:31:14;;;;;;;22.63;14.98;;;-0.10;99.90;;;;;;5076102;28;20393;-69
2022/11/20 03:33:41;;;;;;;23.63;15.00;;;-0.10;99.90;;;;;;5036933;28;20048;-70
2022/11/20 03:36:13;;;;;;;22.90;14.43;;;-0.10;99.90;;;;;;5040152;28;20124;-69
2022/11/20 03:38:39;;;;;;;21.90;14.05;;;0.00;99.90;;;;;;5038439;28;20041;-70
2022/11/20 03:41:08;;;;;;;20.77;13.85;;;0.00;99.90;;;;;;5031792;28;20118;-69
2022/11/20 03:43:34;;;;;;;23.85;15.00;;;0.10;99.90;;;;;;5072567;28;20049;-70
2022/11/20 03:46:00;;;;;;;21.55;13.93;;;0.00;99.90;;;;;;5035296;28;20144;-69
2022/11/20 03:48:26;;;;;;;24.70;15.25;;;0.00;99.90;;;;;;5039896;28;20164;-70
2022/11/20 03:50:53;;;;;;;23.20;15.13;;;0.00;99.90;;;;;;5044487;28;20057;-70
2022/11/20 03:53:20;;;;;;;24.35;15.35;;;0.00;99.90;;;;;;5066984;28;20099;-69
2022/11/20 03:55:50;;;;;;;20.42;14.55;;;0.10;99.90;;;;;;5033220;28;20057;-70
2022/11/20 03:58:16;;;;;;;21.85;14.80;;;0.10;99.90;;;;;;5044112;28;20069;-70
2022/11/20 04:00:41;;;;;;;22.60;14.88;;;0.00;99.90;;;;;;5051939;28;20094;-70
2022/11/20 04:03:07;;;;;;;22.95;13.60;;;0.00;99.90;;;;;;5027794;28;20041;-69
2022/11/20 04:05:34;;;;;;;21.27;15.00;;;0.00;99.90;;;;;;5067063;28;20084;-69
2022/11/20 04:08:00;;;;;;;25.88;15.43;;;0.00;99.90;;;;;;5052164;28;20041;-70
2022/11/20 04:10:26;;;;;;;20.95;14.77;;;0.00;99.90;;;;;;5049067;28;20052;-70
2022/11/20 04:12:51;;;;;;;22.35;14.68;;;0.00;99.90;;;;;;5079680;28;20049;-70
2022/11/20 04:15:17;;;;;;;23.45;15.02;;;-0.10;99.90;;;;;;5072239;28;20037;-69
2022/11/20 04:17:43;;;;;;;21.90;15.70;;;0.00;99.90;;;;;;5069245;28;20049;-69
2022/11/20 04:20:09;;;;;;;26.10;15.77;;;0.00;99.90;;;;;;5049164;28;20103;-69
2022/11/20 04:22:35;;;;;;;23.13;15.13;;;0.00;99.90;;;;;;5051298;28;20053;-69
2022/11/20 04:25:00;;;;;;;21.27;15.30;;;0.00;99.90;;;;;;5067051;28;20060;-70
2022/11/20 04:27:26;;;;;;;22.20;15.70;;;0.00;99.90;;;;;;5045446;28;20049;-70
2022/11/20 04:29:52;;;;;;;23.55;14.68;;;0.00;99.90;;;;;;5048106;28;20115;-69
2022/11/20 04:32:17;;;;;;;23.23;14.32;;;0.00;99.90;;;;;;5045871;28;20048;-70
2022/11/20 04:34:43;;;;;;;21.80;14.00;;;0.00;99.90;;;;;;5066890;28;20056;-69
2022/11/20 04:37:09;;;;;;;19.92;14.65;;;0.10;99.90;;;;;;5048323;28;20044;-69
2022/11/20 04:39:34;;;;;;;20.58;14.30;;;0.10;99.90;;;;;;5059956;28;20049;-70
2022/11/20 04:44:44;;;;;;;20.27;13.73;;;0.00;99.90;;;;;;5059128;28;20103;-69
2022/11/20 04:47:10;;;;;;;20.25;14.10;;;0.10;99.90;;;;;;5039616;28;20041;-70
2022/11/20 04:49:35;;;;;;;20.90;13.77;;;0.10;99.90;;;;;;5050734;28;20041;-69
2022/11/20 04:52:01;;;;;;;23.85;14.48;;;0.10;99.90;;;;;;5058909;28;20058;-69
2022/11/20 04:54:27;;;;;;;21.17;14.20;;;0.00;99.90;;;;;;5059159;28;20044;-69
2022/11/20 04:56:53;;;;;;;21.05;14.60;;;0.10;99.90;;;;;;5069467;28;20063;-69
2022/11/20 04:59:18;;;;;;;20.10;13.75;;;0.10;99.90;;;;;;5056301;28;20408;-70
2022/11/20 05:01:44;;;;;;;20.25;14.80;;;0.10;99.90;;;;;;5088426;28;20041;-69
2022/11/20 05:04:10;;;;;;;20.85;14.20;;;0.10;99.90;;;;;;5063004;28;20094;-69
2022/11/20 05:06:36;;;;;;;22.58;14.77;;;0.10;99.90;;;;;;5079802;28;20048;-69
2022/11/20 05:09:02;;;;;;;20.45;14.48;;;0.20;99.90;;;;;;5068815;28;20050;-69
2022/11/20 05:11:30;;;;;;;23.85;15.30;;;0.20;99.90;;;;;;5056800;28;20570;-69
2022/11/20 05:13:59;;;;;;;23.00;14.40;;;0.20;99.90;;;;;;5065239;28;20052;-69
2022/11/20 05:16:25;;;;;;;21.52;14.55;;;0.20;99.90;;;;;;5047263;28;20066;-69
2022/11/20 05:18:53;;;;;;;19.55;13.07;;;0.20;99.90;;;;;;5057325;28;20127;-69
2022/11/20 05:21:18;;;;;;;21.98;13.82;;;0.30;99.90;;;;;;5070452;28;20044;-70
2022/11/20 05:23:45;;;;;;;22.00;14.30;;;0.20;99.90;;;;;;5057593;28;20045;-69
2022/11/20 05:26:29;;;;;;;21.65;14.15;;;0.30;99.90;;;;;;5052810;28;20099;-69
2022/11/20 05:28:54;;;;;;;20.10;13.07;;;0.20;99.90;;;;;;5046151;28;20041;-69
2022/11/20 05:31:24;;;;;;;20.58;13.60;;;0.30;99.90;;;;;;5052276;28;20075;-70
2022/11/20 05:33:50;;;;;;;18.85;13.50;;;0.30;99.90;;;;;;5038836;28;20041;-69
2022/11/20 05:36:17;;;;;;;20.25;13.82;;;0.30;99.90;;;;;;5050083;28;20045;-69
2022/11/20 05:38:43;;;;;;;20.60;13.10;;;0.30;99.90;;;;;;5076140;28;20489;-69
2022/11/20 05:41:14;;;;;;;18.15;13.32;;;0.30;99.90;;;;;;5041739;28;20803;-69
2022/11/20 05:43:42;;;;;;;20.35;13.90;;;0.30;99.90;;;;;;5064062;28;20045;-70
2022/11/20 05:46:09;;;;;;;18.02;13.38;;;0.30;99.90;;;;;;5042080;28;20049;-69
2022/11/20 05:48:36;;;;;;;18.88;13.35;;;0.30;99.90;;;;;;5071857;28;20104;-70
2022/11/20 05:51:04;;;;;;;20.17;13.82;;;0.20;99.90;;;;;;5066988;28;20041;-70
2022/11/20 05:53:30;;;;;;;21.42;14.82;;;0.30;99.90;;;;;;5059594;28;20040;-69
2022/11/20 05:56:00;;;;;;;20.55;14.55;;;0.30;99.90;;;;;;5048661;28;20076;-69
2022/11/20 05:58:26;;;;;;;19.60;14.48;;;0.30;99.90;;;;;;5041678;28;20049;-70
2022/11/20 06:00:52;;;;;;;20.80;14.13;;;0.30;99.90;;;;;;5018584;28;20064;-69
2022/11/20 06:03:18;;;;;;;19.48;13.90;;;0.30;99.90;;;;;;5044797;28;20056;-69
2022/11/20 06:05:43;;;;;;;19.30;13.48;;;0.30;99.90;;;;;;5048659;28;20053;-69
2022/11/20 06:08:09;;;;;;;21.85;13.60;;;0.30;99.90;;;;;;5054829;28;20051;-69
2022/11/20 06:10:34;;;;;;;21.48;15.05;;;0.30;99.90;;;;;;5059607;28;20047;-70
2022/11/20 06:13:00;;;;;;;20.17;13.75;;;0.30;99.90;;;;;;5070947;28;20539;-69
2022/11/20 06:15:26;;;;;;;22.73;15.27;;;0.30;99.90;;;;;;5053701;28;20582;-69
2022/11/20 06:17:54;;;;;;;18.05;13.75;;;0.20;99.90;;;;;;5059242;28;20059;-70
2022/11/20 06:20:20;;;;;;;21.88;14.48;;;0.20;99.90;;;;;;5079904;28;20033;-70
2022/11/20 06:22:46;;;;;;;20.90;13.82;;;0.20;99.90;;;;;;5052553;28;20050;-69
2022/11/20 06:25:12;;;;;;;21.98;14.70;;;0.20;99.90;;;;;;5053478;28;20060;-69
2022/11/20 06:27:37;;;;;;;22.92;14.43;;;0.20;99.90;;;;;;5078207;28;20511;-69
2022/11/20 06:30:04;;;;;;;22.10;14.40;;;0.30;99.90;;;;;;5066683;28;20047;-69
2022/11/20 06:32:29;;;;;;;21.80;15.10;;;0.30;99.90;;;;;;5078799;28;20053;-69
2022/11/20 06:34:55;;;;;;;22.23;15.45;;;0.30;99.90;;;;;;5063021;28;20029;-69
2022/11/20 06:37:21;;;;;;;18.17;13.95;;;0.20;99.90;;;;;;5047416;28;20037;-69
2022/11/20 06:39:46;;;;;;;20.80;13.52;;;0.30;99.90;;;;;;5040229;28;20076;-69
2022/11/20 06:42:12;;;;;;;22.23;14.80;;;0.30;99.90;;;;;;5054027;28;20044;-69
2022/11/20 06:44:37;;;;;;;22.23;14.07;;;0.30;99.90;;;;;;5035993;28;20182;-69
2022/11/20 06:47:03;;;;;;;20.77;14.43;;;0.30;99.90;;;;;;5032749;28;20076;-70
2022/11/20 06:49:29;;;;;;;19.65;13.57;;;0.30;99.90;;;;;;5035018;28;20075;-69
2022/11/20 06:51:54;;;;;;;22.40;14.43;;;0.30;99.90;;;;;;5040726;28;20108;-69
2022/11/20 06:54:20;;;;;;;19.27;13.90;;;0.30;99.90;;;;;;5027732;28;20045;-69
2022/11/20 06:56:49;;;;;;;20.83;14.30;;;0.30;99.90;;;;;;5028315;28;20057;-69
2022/11/20 06:59:14;;;;;;;21.65;14.63;;;0.30;99.90;;;;;;5060005;28;20049;-69
2022/11/20 07:01:40;;;;;;;22.08;14.85;;;0.30;99.90;;;;;;5064902;28;20055;-69
2022/11/20 07:04:06;;;;;;;20.73;14.23;;;0.30;99.90;;;;;;5071914;28;20044;-69
2022/11/20 07:06:32;;;;;;;19.95;13.88;;;0.30;99.90;;;;;;5069384;28;20044;-69
2022/11/20 07:08:57;;;;;;;20.00;14.23;;;0.30;99.90;;;;;;5040069;28;20053;-69
2022/11/20 07:11:23;;;;;;;21.13;14.70;;;0.40;99.90;;;;;;5043152;28;20528;-69
2022/11/20 07:13:49;;;;;;;20.65;13.65;;;0.40;99.90;;;;;;5079230;28;20041;-69
2022/11/20 07:16:15;;;;;;;20.00;14.13;;;0.40;99.90;;;;;;5053164;28;20536;-70
2022/11/20 07:18:41;;;;;;;22.63;15.30;;;0.40;99.90;;;;;;5036657;28;20044;-69
2022/11/20 07:21:09;;;;;;;25.65;17.92;;;0.40;99.90;;;;;;5055713;28;20105;-69
2022/11/20 07:23:35;;;;;;;28.80;18.83;;;0.40;99.90;;;;;;5055269;28;20108;-69
2022/11/20 07:26:09;;;;;;;26.05;17.85;;;0.50;99.90;;;;;;5067566;28;20048;-69
2022/11/20 07:28:35;;;;;;;22.48;15.68;;;0.50;99.90;;;;;;5061232;28;20579;-70
2022/11/20 07:31:02;;;;;;;20.25;14.13;;;0.50;99.90;;;;;;5036096;28;20049;-69
2022/11/20 07:33:28;;;;;;;20.65;12.70;;;0.50;99.90;;;;;;5056756;28;20377;-69
2022/11/20 07:35:53;;;;;;;17.98;12.10;;;0.50;99.90;;;;;;5055109;28;20059;-69
2022/11/20 07:38:19;;;;;;;17.65;12.77;;;0.50;99.90;;;;;;5068390;28;20039;-69
2022/11/20 07:40:45;;;;;;;16.67;11.88;;;0.50;99.90;;;;;;5032639;28;20075;-69
2022/11/20 07:43:10;;;;;;;16.90;13.05;;;0.50;99.90;;;;;;5044371;28;20044;-69
2022/11/20 07:45:36;;;;;;;17.23;12.55;;;0.50;99.90;;;;;;5047101;28;20044;-70
2022/11/20 07:48:02;;;;;;;19.90;12.90;;;0.50;99.90;;;;;;5073517;28;20119;-70
2022/11/20 07:50:28;;;;;;;22.33;13.75;;;0.50;99.90;;;;;;5054709;28;20060;-69
2022/11/20 07:53:01;;;;;;;19.67;13.27;;;0.50;99.90;;;;;;5052900;28;20463;-70
2022/11/20 07:55:26;;;;;;;18.58;13.75;;;0.50;99.90;;;;;;5075817;28;20045;-70
2022/11/20 07:57:56;;;;;;;19.05;13.55;;;0.50;99.90;;;;;;5033661;28;20502;-69
2022/11/20 08:00:23;;;;;;;20.38;13.77;;;0.50;99.90;;;;;;5065375;28;20041;-69
2022/11/20 08:02:48;;;;;;;17.83;12.32;;;0.50;99.90;;;;;;5065560;28;20614;-69
2022/11/20 08:05:14;;;;;;;18.88;13.00;;;0.50;99.90;;;;;;5030520;28;20051;-69
2022/11/20 08:07:42;;;;;;;20.00;13.02;;;0.50;99.90;;;;;;5049022;28;20150;-71
2022/11/20 08:10:11;;;;;;;18.30;12.95;;;0.50;99.90;;;;;;5047116;28;20041;-69
2022/11/20 08:15:32;;;;;;;18.50;11.93;;;0.50;99.90;;;;;;5039859;28;20064;-71
2022/11/20 08:18:06;;;;;;;16.65;11.98;;;0.60;99.90;;;;;;5052286;28;20048;-67
2022/11/20 08:20:32;;;;;;;18.48;12.38;;;0.60;99.90;;;;;;5058812;28;20045;-68
2022/11/20 08:23:02;;;;;;;18.30;12.88;;;0.60;99.90;;;;;;5060627;28;20104;-68
2022/11/20 08:25:29;;;;;;;17.83;12.45;;;0.70;99.90;;;;;;5068628;28;20041;-67
2022/11/20 08:27:58;;;;;;;17.88;12.50;;;0.70;99.90;;;;;;5062274;28;20108;-67
2022/11/20 08:30:24;;;;;;;19.17;12.10;;;0.70;99.90;;;;;;5064234;28;20129;-67
2022/11/20 08:32:49;;;;;;;16.38;11.93;;;0.70;99.90;;;;;;5048909;28;20052;-67
2022/11/20 08:35:15;;;;;;;16.95;11.98;;;0.70;99.90;;;;;;5052437;28;20048;-67
2022/11/20 08:37:41;;;;;;;17.90;12.38;;;0.70;99.90;;;;;;5050889;28;20052;-67
2022/11/20 08:40:10;;;;;;;18.25;12.55;;;0.80;99.90;;;;;;5050265;28;20110;-66
2022/11/20 08:42:35;;;;;;;19.50;13.25;;;0.90;99.90;;;;;;5045527;28;20052;-66
2022/11/20 08:45:01;;;;;;;19.38;13.05;;;0.80;99.90;;;;;;5076546;28;20397;-66
2022/11/20 08:47:27;;;;;;;18.08;12.30;;;0.80;99.90;;;;;;5029776;28;20132;-67
2022/11/20 08:49:52;;;;;;;17.77;12.70;;;0.80;99.90;;;;;;5030357;28;20056;-67
2022/11/20 08:52:18;;;;;;;20.65;13.18;;;0.80;99.90;;;;;;5032068;28;20099;-67
2022/11/20 08:54:44;;;;;;;18.27;12.60;;;0.80;99.90;;;;;;5030438;28;20081;-66
2022/11/20 08:57:09;;;;;;;19.83;13.25;;;0.80;99.90;;;;;;5070337;28;20049;-67
2022/11/20 08:59:35;;;;;;;20.25;13.10;;;0.80;99.90;;;;;;5037533;28;20049;-68
2022/11/20 09:02:01;;;;;;;19.25;13.35;;;0.90;99.90;;;;;;5028087;28;20049;-67
2022/11/20 09:04:26;;;;;;;16.70;12.30;;;0.80;99.90;;;;;;5028780;28;20049;-68
2022/11/20 09:06:52;;;;;;;18.80;12.27;;;0.90;99.90;;;;;;5034977;28;20105;-67
2022/11/20 09:09:18;;;;;;;16.50;11.48;;;0.80;99.90;;;;;;5021300;28;20049;-68
2022/11/20 09:11:44;;;;;;;16.58;11.75;;;0.90;99.90;;;;;;5046258;28;20041;-70
2022/11/20 09:14:10;;;;;;;19.02;12.68;;;0.90;99.90;;;;;;5070697;28;20056;-68
2022/11/20 09:16:36;;;;;;;17.42;11.15;;;0.90;99.90;;;;;;5028753;28;20041;-68
2022/11/20 09:19:01;;;;;;;15.52;11.02;;;0.90;99.90;;;;;;5046986;28;20048;-68
2022/11/20 09:21:27;;;;;;;17.10;12.07;;;1.10;99.90;;;;;;5053045;28;20100;-68
2022/11/20 09:23:52;;;;;;;18.48;11.38;;;1.00;99.90;;;;;;5069194;28;20492;-68
2022/11/20 09:26:19;;;;;;;17.67;10.75;;;1.10;99.90;;;;;;5056518;28;20052;-67
2022/11/20 09:28:44;;;;;;;16.48;12.27;;;1.10;99.90;;;;;;5045463;28;20053;-69
2022/11/20 09:31:25;;;;;;;15.95;10.88;;;1.10;99.90;;;;;;5047316;28;20056;-68
2022/11/20 09:33:51;;;;;;;17.35;11.63;;;1.10;99.90;;;;;;5049265;28;20571;-69
2022/11/20 09:36:18;;;;;;;17.77;12.25;;;1.20;99.90;;;;;;5048741;28;20037;-69
2022/11/20 09:38:45;;;;;;;18.67;12.23;;;1.20;99.90;;;;;;5048792;28;20588;-69
2022/11/20 09:41:20;;;;;;;18.75;12.75;;;1.10;99.90;;;;;;5064613;28;20041;-69
2022/11/20 09:44:01;;;;;;;17.60;11.43;;;1.10;99.90;;;;;;5056873;28;20385;-69
2022/11/20 09:46:37;;;;;;;16.10;11.43;;;1.20;99.90;;;;;;5061715;28;20045;-69
2022/11/20 09:49:33;;;;;;;19.65;12.13;;;1.10;99.90;;;;;;5037118;28;20088;-69
2022/11/20 09:52:12;;;;;;;17.25;11.98;;;1.20;99.90;;;;;;5046108;28;20051;-69
2022/11/20 09:54:40;;;;;;;18.25;12.25;;;1.30;99.90;;;;;;5037466;28;20053;-69
2022/11/20 09:57:11;;;;;;;19.58;12.57;;;1.30;99.90;;;;;;5048680;28;20052;-69
2022/11/20 09:59:42;;;;;;;21.73;13.48;;;1.40;99.90;;;;;;5065462;28;20041;-68
2022/11/20 10:02:16;;;;;;;20.67;13.18;;;1.40;99.90;;;;;;5051131;28;20060;-69
2022/11/20 10:04:48;;;;;;;13.85;11.02;;;1.50;99.90;;;;;;5069470;28;20203;-69
2022/11/20 10:07:19;;;;;;;18.02;12.40;;;1.50;99.90;;;;;;5051182;28;20057;-69
2022/11/20 10:09:52;;;;;;;21.30;13.30;;;1.50;99.90;;;;;;5040780;28;20075;-69
2022/11/20 10:12:48;;;;;;;21.92;13.68;;;1.60;99.90;;;;;;5073152;28;20044;-69
2022/11/20 10:15:23;;;;;;;21.63;12.90;;;1.50;99.90;;;;;;5065497;28;20041;-69
2022/11/20 10:18:15;;;;;;;17.33;11.80;;;1.50;99.90;;;;;;5044953;28;20127;-69
2022/11/20 10:21:10;;;;;;;17.35;11.65;;;1.60;99.90;;;;;;5045947;28;20066;-68
2022/11/20 10:23:45;;;;;;;20.23;12.32;;;1.60;99.90;;;;;;5036559;28;20090;-69
2022/11/20 10:26:34;;;;;;;17.60;12.30;;;1.70;99.90;;;;;;5062543;28;20053;-69
2022/11/20 10:29:17;;;;;;;16.13;11.68;;;1.70;99.90;;;;;;5077637;28;20049;-70
2022/11/20 10:31:49;;;;;;;14.13;10.68;;;1.70;99.90;;;;;;5038102;28;20076;-67
2022/11/20 10:34:30;;;;;;;16.17;11.43;;;1.70;99.90;;;;;;5033054;28;20044;-66
2022/11/20 10:37:06;;;;;;;15.63;10.90;;;1.80;99.90;;;;;;5041499;28;20477;-65
2022/11/20 10:40:09;;;;;;;16.05;11.32;;;2.00;99.90;;;;;;5039418;28;20204;-66
2022/11/20 10:42:50;;;;;;;15.10;10.60;;;2.00;99.90;;;;;;5028577;28;20077;-66
2022/11/20 10:45:26;;;;;;;17.63;11.07;;;2.10;99.90;;;;;;5044013;28;20087;-66
2022/11/20 10:48:23;;;;;;;12.07;9.32;;;2.20;99.90;;;;;;5063848;28;20057;-66
2022/11/20 10:51:01;;;;;;;12.75;8.98;;;2.20;99.90;;;;;;5057910;28;20074;-66
2022/11/20 10:53:33;;;;;;;12.85;9.68;;;2.30;99.90;;;;;;5052794;28;20049;-66
2022/11/20 10:56:14;;;;;;;13.68;10.07;;;2.30;99.90;;;;;;5051734;28;20059;-66
2022/11/20 10:58:45;;;;;;;14.60;10.05;;;2.40;99.90;;;;;;5063380;28;20052;-66
2022/11/20 11:01:17;;;;;;;14.30;10.57;;;2.40;99.90;;;;;;5047432;28;20048;-66
2022/11/20 11:03:44;;;;;;;13.93;9.80;;;2.50;99.90;;;;;;5060827;28;20052;-66
2022/11/20 11:06:28;;;;;;;14.27;11.10;;;2.60;99.90;;;;;;5055446;28;20048;-66
2022/11/20 11:08:58;;;;;;;16.00;10.88;;;2.70;99.90;;;;;;5062645;28;20057;-66
2022/11/20 11:11:28;;;;;;;12.57;9.80;;;2.60;99.90;;;;;;5049587;28;20063;-66
2022/11/20 11:14:06;;;;;;;13.32;10.07;;;2.60;99.90;;;;;;5051756;28;20112;-67
2022/11/20 11:16:33;;;;;;;14.40;10.73;;;2.70;99.90;;;;;;5036013;28;20084;-68
2022/11/20 11:19:12;;;;;;;14.07;10.50;;;2.80;99.90;;;;;;5064759;28;20069;-71
2022/11/20 11:21:43;;;;;;;20.52;12.32;;;2.80;99.90;;;;;;5049514;28;20079;-67
2022/11/20 11:24:23;;;;;;;21.65;11.82;;;2.80;99.90;;;;;;5052839;28;20048;-68
2022/11/20 11:27:13;;;;;;;11.95;8.85;;;2.90;99.90;;;;;;5062033;28;20095;-68
2022/11/20 11:29:38;;;;;;;11.48;8.23;;;2.90;99.90;;;;;;5080050;28;20049;-68
2022/11/20 11:32:23;;;;;;;14.15;8.52;;;3.00;99.90;;;;;;5030783;28;20079;-68
2022/11/20 11:35:06;;;;;;;10.70;8.23;;;3.00;99.90;;;;;;5039138;28;20083;-69
2022/11/20 11:37:37;;;;;;;10.43;8.13;;;3.00;99.90;;;;;;5036605;28;20072;-67
2022/11/20 11:40:06;;;;;;;;;;;3.10;99.90;;;;;;5032618;28;20055;-67
2022/11/20 11:42:33;;;;;;;11.52;8.43;;;3.10;99.90;;;;;;5070418;28;19931;-67
2022/11/20 11:45:05;;;;;;;10.25;8.18;;;3.10;99.90;;;;;;5069390;28;20049;-67
2022/11/20 11:47:47;;;;;;;11.90;8.55;;;3.20;99.90;;;;;;5049466;28;20088;-69
2022/11/20 11:50:16;;;;;;;11.85;8.68;;;3.20;99.90;;;;;;5047416;28;20112;-69
2022/11/20 11:53:16;;;;;;;15.13;10.50;;;3.20;99.90;;;;;;5051112;28;20731;-69
2022/11/20 11:56:07;;;;;;;9.75;7.63;;;3.20;99.90;;;;;;5041624;28;20052;-69
2022/11/20 11:58:33;;;;;;;7.18;5.53;;;3.20;99.90;;;;;;5021910;28;20059;-69
2022/11/20 12:01:18;;;;;;;9.20;5.60;;;3.20;99.90;;;;;;5066119;28;20056;-69
2022/11/20 12:03:55;;;;;;;9.45;6.57;;;3.20;99.90;;;;;;5055634;28;20612;-69
2022/11/20 12:06:21;;;;;;;9.27;6.40;;;3.20;99.90;;;;;;5045437;28;20075;-69
2022/11/20 12:09:01;;;;;;;10.05;7.40;;;3.20;99.90;;;;;;5053236;28;20036;-70
2022/11/20 12:12:04;;;;;;;9.43;6.93;;;3.30;99.90;;;;;;5029295;28;20049;-67
2022/11/20 12:14:38;;;;;;;14.25;8.55;;;3.30;99.90;;;;;;5051607;28;20060;-68
2022/11/20 12:17:04;;;;;;;11.32;7.75;;;3.40;99.90;;;;;;5040774;28;20049;-66
2022/11/20 12:19:33;;;;;;;12.18;9.13;;;3.50;99.90;;;;;;5043176;28;20075;-67
2022/11/20 12:22:19;;;;;;;14.02;8.68;;;3.60;99.90;;;;;;5050347;28;20057;-66
2022/11/20 12:24:51;;;;;;;13.27;8.20;;;3.70;99.90;;;;;;5066963;28;20063;-68
2022/11/20 12:27:55;;;;;;;10.85;7.20;;;3.80;99.90;;;;;;5047214;28;20049;-67
2022/11/20 12:30:22;;;;;;;11.80;8.70;;;3.80;99.90;;;;;;5053036;28;20056;-67
2022/11/20 12:33:12;;;;;;;9.40;7.60;;;3.90;99.90;;;;;;5051516;28;20048;-67
2022/11/20 12:35:44;;;;;;;11.63;8.05;;;4.00;99.90;;;;;;5078590;28;20076;-67
2022/11/20 12:38:46;;;;;;;12.20;8.43;;;4.00;99.90;;;;;;5051186;28;20040;-67
2022/11/20 12:45:10;;;;;;;11.70;8.90;;;4.20;99.90;;;;;;4967688;28;20082;-66
2022/11/20 12:48:39;;;;;;;11.77;8.90;;;4.20;99.90;;;;;;4985059;28;20054;-69
2022/11/20 12:51:21;;;;;;;12.27;8.80;;;4.20;99.90;;;;;;4908923;29;20072;-69
2022/11/20 12:54:08;;;;;;;12.15;8.93;;;4.00;99.90;;;;;;4924227;29;20060;-70
2022/11/20 12:56:47;;;;;;;13.38;8.57;;;4.00;99.90;;;;;;4912382;29;20060;-69
2022/11/20 12:59:21;;;;;;;11.98;9.65;;;4.00;99.90;;;;;;4899788;29;20064;-69
2022/11/20 13:02:10;;;;;;;11.77;9.15;;;4.00;99.90;;;;;;4902989;29;20088;-69